createdAt,value
2023-01-29T00:03:17.363Z,4.80
2023-01-29T00:08:19.473Z,4.40
2023-01-29T00:13:22.378Z,5.30
2023-01-29T00:18:25.827Z,4.90
2023-01-29T00:23:28.110Z,7.38
2023-01-29T00:28:30.348Z,6.88
2023-01-29T00:33:32.482Z,6.47
2023-01-29T00:38:35.269Z,7.40
2023-01-29T00:43:56.093Z,9.30
2023-01-29T00:49:00.129Z,9.23
2023-01-29T00:54:06.873Z,7.22
2023-01-29T00:59:08.916Z,6.10
2023-01-29T01:04:12.279Z,5.72
2023-01-29T01:09:32.728Z,2.95
2023-01-29T01:14:36.628Z,4.15
2023-01-29T01:19:38.947Z,2.95
2023-01-29T01:24:41.179Z,3.60
2023-01-29T01:29:43.315Z,2.75
2023-01-29T01:34:45.482Z,2.90
2023-01-29T01:39:49.171Z,2.95
2023-01-29T01:44:51.528Z,2.13
2023-01-29T01:49:55.816Z,2.65
2023-01-29T01:54:59.886Z,1.92
2023-01-29T02:00:10.199Z,2.10
2023-01-29T02:05:39.680Z,1.58
2023-01-29T02:10:45.563Z,1.88
2023-01-29T02:15:48.918Z,4.68
2023-01-29T02:21:25.348Z,1.20
2023-01-29T02:26:32.375Z,1.10
2023-01-29T02:31:48.380Z,1.00
2023-01-29T02:36:58.637Z,0.75
2023-01-29T02:42:24.706Z,0.83
2023-01-29T02:47:32.971Z,1.10
2023-01-29T02:52:54.315Z,1.33
2023-01-29T02:58:04.104Z,1.27
2023-01-29T03:03:16.551Z,1.35
2023-01-29T03:08:37.388Z,1.45
2023-01-29T03:13:57.789Z,1.40
2023-01-29T03:19:16.409Z,4.55
2023-01-29T03:24:43.467Z,1.70
2023-01-29T03:30:07.111Z,1.05
2023-01-29T03:35:35.521Z,1.30
2023-01-29T03:40:50.571Z,1.13
2023-01-29T03:46:36.694Z,1.23
2023-01-29T03:51:50.896Z,1.20
2023-01-29T03:57:15.591Z,1.02
2023-01-29T04:02:30.699Z,1.38
2023-01-29T04:07:36.927Z,1.83
2023-01-29T04:12:56.823Z,1.50
2023-01-29T04:17:59.646Z,1.40
2023-01-29T04:23:27.591Z,1.35
2023-01-29T04:28:46.152Z,1.60
2023-01-29T04:33:48.360Z,1.65
2023-01-29T04:39:17.548Z,1.33
2023-01-29T04:44:28.853Z,0.85
2023-01-29T04:49:49.376Z,0.95
2023-01-29T04:55:06.327Z,1.02
2023-01-29T05:00:34.707Z,0.93
2023-01-29T05:05:37.047Z,1.30
2023-01-29T05:10:39.989Z,1.10
2023-01-29T05:15:50.781Z,1.50
2023-01-29T05:20:56.839Z,1.30
2023-01-29T05:25:59.122Z,1.25
2023-01-29T05:31:01.333Z,1.25
2023-01-29T05:36:04.131Z,1.50
2023-01-29T05:41:06.268Z,1.73
2023-01-29T05:46:08.394Z,1.58
2023-01-29T05:51:10.494Z,1.55
2023-01-29T05:56:12.621Z,2.05
2023-01-29T06:01:23.167Z,2.20
2023-01-29T06:06:25.269Z,1.75
2023-01-29T06:11:27.352Z,2.10
2023-01-29T06:16:30.137Z,1.83
2023-01-29T06:21:32.361Z,1.95
2023-01-29T06:26:34.442Z,1.83
2023-01-29T06:31:39.229Z,2.00
2023-01-29T06:36:42.977Z,1.80
2023-01-29T06:41:46.421Z,1.85
2023-01-29T06:46:48.479Z,1.80
2023-01-29T06:51:50.553Z,1.70
2023-01-29T06:56:52.838Z,1.50
2023-01-29T07:01:54.978Z,1.80
2023-01-29T07:06:57.148Z,0.82
2023-01-29T07:11:59.295Z,1.50
2023-01-29T07:17:01.652Z,1.75
2023-01-29T07:22:04.077Z,1.33
2023-01-29T07:27:06.407Z,1.80
2023-01-29T07:32:08.712Z,2.28
2023-01-29T07:37:11.583Z,1.60
2023-01-29T07:42:13.756Z,1.00
2023-01-29T07:47:17.237Z,0.90
2023-01-29T07:52:21.943Z,1.20
2023-01-29T07:57:24.697Z,0.90
2023-01-29T08:02:26.864Z,0.77
2023-01-29T08:07:29.085Z,1.23
2023-01-29T08:12:31.260Z,1.90
2023-01-29T08:17:33.442Z,1.10
2023-01-29T08:22:35.598Z,2.63
2023-01-29T08:27:37.836Z,1.00
2023-01-29T08:32:39.877Z,1.15
2023-01-29T08:37:42.046Z,0.85
2023-01-29T08:42:44.214Z,0.93
2023-01-29T08:47:47.695Z,0.90
2023-01-29T08:52:49.998Z,0.82
2023-01-29T08:57:52.096Z,0.55
2023-01-29T09:02:54.178Z,1.08
2023-01-29T09:07:59.875Z,1.13
2023-01-29T09:13:02.313Z,0.80
2023-01-29T09:18:05.580Z,1.20
2023-01-29T09:23:09.601Z,1.20
2023-01-29T09:28:11.781Z,0.73
2023-01-29T09:33:14.074Z,1.20
2023-01-29T09:38:16.236Z,1.30
2023-01-29T09:43:24.448Z,1.60
2023-01-29T09:48:31.407Z,1.30
2023-01-29T09:53:54.955Z,1.50
2023-01-29T09:59:01.391Z,1.75
2023-01-29T10:04:45.789Z,1.80
2023-01-29T10:10:22.850Z,1.40
2023-01-29T10:15:43.673Z,2.10
2023-01-29T10:21:13.044Z,1.75
2023-01-29T10:26:15.238Z,1.63
2023-01-29T10:31:38.762Z,2.00
2023-01-29T10:36:43.324Z,2.00
2023-01-29T10:42:05.732Z,2.40
2023-01-29T10:47:46.461Z,1.08
2023-01-29T10:53:18.477Z,1.75
2023-01-29T11:03:44.200Z,1.50
2023-01-29T11:09:11.124Z,0.80
2023-01-29T11:14:27.147Z,1.20
2023-01-29T11:19:41.490Z,1.10
2023-01-29T11:24:44.374Z,0.95
2023-01-29T11:29:48.359Z,1.30
2023-01-29T11:35:22.092Z,1.35
2023-01-29T11:40:24.123Z,1.38
2023-01-29T11:45:32.413Z,1.33
2023-01-29T11:50:34.697Z,0.80
2023-01-29T11:55:49.784Z,1.50
2023-01-29T12:00:55.439Z,1.80
2023-01-29T12:06:06.020Z,1.50
2023-01-29T12:11:23.913Z,1.73
2023-01-29T12:16:41.100Z,1.85
2023-01-29T12:21:52.782Z,1.45
2023-01-29T12:32:22.510Z,1.20
2023-01-29T12:37:36.176Z,1.88
2023-01-29T12:42:42.059Z,2.03
2023-01-29T12:47:49.294Z,2.20
2023-01-29T12:52:58.550Z,1.90
2023-01-29T12:58:04.283Z,2.42
2023-01-29T13:03:21.394Z,2.03
2023-01-29T13:08:31.139Z,1.85
2023-01-29T13:13:37.014Z,2.50
2023-01-29T13:18:47.963Z,2.38
2023-01-29T13:23:56.935Z,1.77
2023-01-29T13:28:59.155Z,2.10
2023-01-29T13:34:10.174Z,2.50
2023-01-29T13:39:25.130Z,1.83
2023-01-29T13:44:37.521Z,2.55
2023-01-29T13:50:02.773Z,2.60
2023-01-29T13:55:09.568Z,2.70
2023-01-29T14:00:43.658Z,1.75
2023-01-29T14:05:54.755Z,2.40
2023-01-29T14:11:35.929Z,2.90
2023-01-29T14:16:38.237Z,2.50
2023-01-29T14:21:40.792Z,2.42
2023-01-29T14:26:48.631Z,2.35
2023-01-29T14:32:00.744Z,2.85
2023-01-29T14:37:19.482Z,3.55
2023-01-29T14:42:26.024Z,3.80
2023-01-29T14:47:28.026Z,3.45
2023-01-29T14:52:35.901Z,3.45
2023-01-29T14:57:38.988Z,2.35
2023-01-29T15:02:44.723Z,3.08
2023-01-29T15:07:57.093Z,2.65
2023-01-29T15:13:30.537Z,2.53
2023-01-29T15:18:42.418Z,4.18
2023-01-29T15:23:45.598Z,3.20
2023-01-29T15:29:03.639Z,2.60
2023-01-29T15:34:07.848Z,4.13
2023-01-29T15:39:09.863Z,2.88
2023-01-29T15:44:21.164Z,3.53
2023-01-29T15:49:32.114Z,3.30
2023-01-29T15:54:35.699Z,4.07
2023-01-29T15:59:42.702Z,3.88
2023-01-29T16:04:46.063Z,3.88
2023-01-29T16:09:49.304Z,4.20
2023-01-29T16:14:52.072Z,4.30
2023-01-29T16:20:02.048Z,4.75
2023-01-29T16:25:13.456Z,4.95
2023-01-29T16:30:17.605Z,4.93
2023-01-29T16:35:20.005Z,4.03
2023-01-29T16:40:33.922Z,3.25
2023-01-29T16:45:36.011Z,3.47
2023-01-29T16:50:53.861Z,3.97
2023-01-29T16:56:03.921Z,3.97
2023-01-29T17:01:10.845Z,4.25
2023-01-29T17:06:23.235Z,4.22
2023-01-29T17:11:36.812Z,3.25
2023-01-29T17:17:03.939Z,3.15
2023-01-29T17:22:08.589Z,2.40
2023-01-29T17:27:22.740Z,2.75
2023-01-29T17:32:44.071Z,3.03
2023-01-29T17:37:49.502Z,3.60
2023-01-29T17:42:51.564Z,2.92
2023-01-29T17:47:53.605Z,2.20
2023-01-29T17:52:55.771Z,2.78
2023-01-29T17:57:57.859Z,2.42
2023-01-29T18:03:02.504Z,3.22
2023-01-29T18:08:04.905Z,2.97
2023-01-29T18:13:06.940Z,2.75
2023-01-29T18:18:15.951Z,2.78
2023-01-29T18:23:18.037Z,2.03
2023-01-29T18:28:20.186Z,2.67
2023-01-29T18:33:24.246Z,2.15
2023-01-29T18:38:26.537Z,2.58
2023-01-29T18:43:28.713Z,2.58
2023-01-29T18:48:31.195Z,2.25
2023-01-29T18:53:33.543Z,3.65
2023-01-29T18:58:36.923Z,2.70
2023-01-29T19:03:40.736Z,3.08
2023-01-29T19:08:44.085Z,3.67
2023-01-29T19:13:48.031Z,3.72
2023-01-29T19:18:50.095Z,3.85
2023-01-29T19:23:52.150Z,3.13
2023-01-29T19:28:54.411Z,3.72
2023-01-29T19:33:56.489Z,3.58
2023-01-29T19:38:58.638Z,3.40
2023-01-29T19:44:00.746Z,3.35
2023-01-29T19:49:03.635Z,4.03
2023-01-29T19:54:05.728Z,3.80
2023-01-29T19:59:07.803Z,3.35
2023-01-29T20:04:09.824Z,3.92
2023-01-29T20:09:12.061Z,3.72
2023-01-29T20:14:14.150Z,4.72
2023-01-29T20:19:16.330Z,3.22
2023-01-29T20:24:18.358Z,4.47
2023-01-29T20:29:20.389Z,4.05
2023-01-29T20:34:22.571Z,4.20
2023-01-29T20:39:24.863Z,4.32
2023-01-29T20:44:26.996Z,4.65
2023-01-29T20:49:29.213Z,4.15
2023-01-29T20:54:33.344Z,3.30
2023-01-29T20:59:35.658Z,3.50
2023-01-29T21:04:37.774Z,3.60
2023-01-29T21:09:39.928Z,4.28
2023-01-29T21:14:42.093Z,4.47
2023-01-29T21:19:44.157Z,5.10
2023-01-29T21:24:46.358Z,4.55
2023-01-29T21:29:48.698Z,5.70
2023-01-29T21:34:52.606Z,5.05
2023-01-29T21:39:54.844Z,5.50
2023-01-29T21:44:57.023Z,4.97
2023-01-29T21:49:59.064Z,4.75
2023-01-29T21:55:01.179Z,5.32
2023-01-29T22:00:04.301Z,4.82
2023-01-29T22:05:18.877Z,5.13
2023-01-29T22:10:22.538Z,5.95
2023-01-29T22:15:24.717Z,5.55
2023-01-29T22:20:30.764Z,5.18
2023-01-29T22:25:33.511Z,5.57
2023-01-29T22:30:35.669Z,4.90
2023-01-29T22:35:38.373Z,4.00
2023-01-29T22:40:40.408Z,4.68
2023-01-29T22:45:42.533Z,4.43
2023-01-29T22:50:53.825Z,4.57
2023-01-29T22:55:56.048Z,4.07
2023-01-29T23:00:58.207Z,3.83
2023-01-29T23:06:00.345Z,4.13
2023-01-29T23:11:14.667Z,4.13
2023-01-29T23:16:20.153Z,4.53
2023-01-29T23:21:25.219Z,4.50
2023-01-29T23:26:47.563Z,4.28
2023-01-29T23:31:49.830Z,4.22
2023-01-29T23:36:52.052Z,4.50
2023-01-29T23:41:55.209Z,3.20
2023-01-29T23:46:58.386Z,4.57
2023-01-29T23:52:00.470Z,4.25
2023-01-29T23:57:02.487Z,3.80
